Time;durP1;ratioP1;P1;durP2;ratioP2;P2;SDS_P1;SDS_P2;PMS_P1;PMS_P2;Temp;Humidity;BMP_temperature;BMP_pressure;BME280_temperature;BME280_humidity;BME280_pressure;Samples;Min_cycle;Max_cycle;Signal;HPM_P1;HPM_P2
2023/01/02 00:00:31;;;;;;;4.73;3.00;;;20.20;64.60;;;;;;4983903;28;20477;-75
2023/01/02 00:02:59;;;;;;;4.73;3.17;;;20.20;64.50;;;;;;4991285;28;20460;-75
2023/01/02 00:05:27;;;;;;;4.90;3.27;;;20.10;64.30;;;;;;4990861;28;20465;-76
2023/01/02 00:07:55;;;;;;;6.27;3.80;;;20.10;64.50;;;;;;4986178;28;20477;-75
2023/01/02 00:10:23;;;;;;;6.40;2.63;;;20.10;64.40;;;;;;4986625;28;20480;-75
2023/01/02 00:12:52;;;;;;;9.10;3.50;;;20.10;64.60;;;;;;4991575;28;20471;-76
2023/01/02 00:15:20;;;;;;;4.50;3.17;;;20.10;64.70;;;;;;4986912;28;20454;-76
2023/01/02 00:17:48;;;;;;;4.67;2.90;;;20.10;64.80;;;;;;4993780;28;20457;-75
2023/01/02 00:20:16;;;;;;;9.23;3.57;;;20.10;64.70;;;;;;4992182;28;20484;-75
2023/01/02 00:22:44;;;;;;;6.33;3.60;;;20.10;64.80;;;;;;4985059;28;20493;-75
2023/01/02 00:25:12;;;;;;;3.90;3.30;;;20.10;64.80;;;;;;4991168;28;20461;-76
2023/01/02 00:27:41;;;;;;;5.80;3.50;;;20.10;64.80;;;;;;4992430;28;20461;-76
2023/01/02 00:30:12;;;;;;;5.07;4.00;;;20.10;65.00;;;;;;4992645;28;20481;-75
2023/01/02 00:32:40;;;;;;;4.33;3.20;;;20.10;64.80;;;;;;4992123;28;20461;-75
2023/01/02 00:35:08;;;;;;;3.57;3.07;;;20.10;64.90;;;;;;4994261;28;20484;-75
2023/01/02 00:37:37;;;;;;;4.80;3.40;;;20.10;64.90;;;;;;4992992;28;20994;-76
2023/01/02 00:40:06;;;;;;;6.90;3.27;;;20.10;64.80;;;;;;4987037;28;20482;-76
2023/01/02 00:42:34;;;;;;;5.20;3.47;;;20.10;64.80;;;;;;4987463;28;20484;-76
2023/01/02 00:45:02;;;;;;;3.70;3.30;;;20.10;65.00;;;;;;4983461;28;20458;-75
2023/01/02 00:47:31;;;;;;;3.90;3.50;;;20.00;64.80;;;;;;4983316;28;20453;-76
2023/01/02 00:49:59;;;;;;;6.57;3.83;;;20.10;65.00;;;;;;4993177;28;20499;-76
2023/01/02 00:52:27;;;;;;;6.13;3.30;;;20.00;64.90;;;;;;4986588;28;20446;-76
2023/01/02 00:54:55;;;;;;;5.70;3.00;;;20.00;64.90;;;;;;4991197;28;20457;-76
2023/01/02 00:57:23;;;;;;;6.80;3.50;;;20.00;64.90;;;;;;4993207;28;20462;-76
2023/01/02 00:59:51;;;;;;;5.27;3.60;;;20.00;64.90;;;;;;4989952;28;20477;-76
2023/01/02 01:02:19;;;;;;;6.43;3.40;;;20.00;64.90;;;;;;4987726;28;20477;-76
2023/01/02 01:04:48;;;;;;;4.27;3.47;;;20.00;65.00;;;;;;4987612;28;20508;-76
2023/01/02 01:07:16;;;;;;;4.63;2.93;;;20.00;64.90;;;;;;4983665;28;20466;-76
2023/01/02 01:09:44;;;;;;;6.37;3.97;;;20.00;64.90;;;;;;4983898;28;20477;-77
2023/01/02 01:12:12;;;;;;;3.20;2.90;;;20.00;65.00;;;;;;4992468;28;20449;-77
2023/01/02 01:14:40;;;;;;;5.00;3.80;;;20.00;65.00;;;;;;4986849;28;20457;-76
2023/01/02 01:17:08;;;;;;;3.57;3.23;;;20.00;65.00;;;;;;4991078;28;20453;-76
2023/01/02 01:19:36;;;;;;;5.93;3.90;;;20.00;65.00;;;;;;4991745;28;20484;-76
2023/01/02 01:22:06;;;;;;;3.40;3.10;;;20.00;65.00;;;;;;4993804;28;20991;-77
2023/01/02 01:24:34;;;;;;;7.93;3.60;;;19.90;65.00;;;;;;4997809;28;20449;-76
2023/01/02 01:27:02;;;;;;;7.47;3.03;;;19.90;65.10;;;;;;4993261;28;20456;-76
2023/01/02 01:29:30;;;;;;;4.17;3.30;;;19.90;65.00;;;;;;4985991;28;20453;-76
2023/01/02 01:31:57;;;;;;;5.30;4.00;;;20.00;65.10;;;;;;4988925;28;20445;-76
2023/01/02 01:34:25;;;;;;;6.10;3.70;;;19.90;64.90;;;;;;4992314;28;20488;-76
2023/01/02 01:36:53;;;;;;;3.67;3.37;;;19.90;64.90;;;;;;4991457;28;20506;-76
2023/01/02 01:39:23;;;;;;;3.77;3.40;;;19.90;65.00;;;;;;4992904;28;20464;-76
2023/01/02 01:41:50;;;;;;;5.03;3.57;;;19.90;64.90;;;;;;4988460;28;20468;-77
2023/01/02 01:44:42;;;;;;;5.10;3.60;;;19.90;65.00;;;;;;4987923;28;20457;-76
2023/01/02 01:47:15;;;;;;;4.73;3.50;;;19.90;64.90;;;;;;4988496;28;20453;-76
2023/01/02 01:49:44;;;;;;;4.20;3.40;;;19.90;65.20;;;;;;4992775;28;20481;-76
2023/01/02 01:52:13;;;;;;;5.07;3.70;;;19.80;65.20;;;;;;4987387;28;20449;-76
2023/01/02 01:54:44;;;;;;;6.43;3.10;;;19.90;65.20;;;;;;4991585;28;20457;-76
2023/01/02 01:57:12;;;;;;;4.90;3.20;;;19.90;65.20;;;;;;4993287;28;20453;-76
2023/01/02 01:59:41;;;;;;;7.20;2.90;;;19.90;65.20;;;;;;4986392;28;20481;-76
2023/01/02 02:02:09;;;;;;;4.47;3.20;;;19.90;65.20;;;;;;4985259;28;20478;-76
2023/01/02 02:04:37;;;;;;;3.50;3.20;;;19.90;65.20;;;;;;4990152;28;20541;-76
2023/01/02 02:07:05;;;;;;;3.87;3.40;;;19.90;65.00;;;;;;4991265;28;20463;-76
2023/01/02 02:09:35;;;;;;;13.30;3.67;;;19.90;65.10;;;;;;4985267;28;20477;-76
2023/01/02 02:12:05;;;;;;;4.43;3.40;;;19.90;65.10;;;;;;4992310;28;20533;-76
2023/01/02 02:14:33;;;;;;;5.47;3.50;;;19.90;65.00;;;;;;4993752;28;20453;-76
2023/01/02 02:17:04;;;;;;;3.30;2.97;;;19.90;65.10;;;;;;4989812;28;20540;-76
2023/01/02 02:19:45;;;;;;;5.60;3.43;;;19.90;65.20;;;;;;4985795;28;20464;-76
2023/01/02 02:22:35;;;;;;;3.63;3.27;;;19.90;65.20;;;;;;4985700;28;20488;-76
2023/01/02 02:25:33;;;;;;;4.57;3.30;;;19.90;65.20;;;;;;4983071;28;20445;-76
2023/01/02 02:28:38;;;;;;;4.70;3.30;;;19.90;65.20;;;;;;4983785;28;20453;-76
2023/01/02 02:31:08;;;;;;;6.10;3.37;;;19.90;65.30;;;;;;4988535;28;20468;-77
2023/01/02 02:33:39;;;;;;;6.53;3.73;;;19.90;65.50;;;;;;4992222;28;20454;-77
2023/01/02 02:36:11;;;;;;;5.37;3.10;;;19.90;65.20;;;;;;4989931;28;20458;-76
2023/01/02 02:38:47;;;;;;;4.30;3.37;;;19.90;65.30;;;;;;4992954;28;20452;-76
2023/01/02 02:41:20;;;;;;;6.00;3.90;;;19.90;65.20;;;;;;4991250;28;20472;-76
2023/01/02 02:43:51;;;;;;;3.63;3.23;;;19.90;65.30;;;;;;4987726;28;20513;-76
2023/01/02 02:46:23;;;;;;;6.17;3.73;;;19.90;65.20;;;;;;4989483;28;20457;-76
2023/01/02 02:48:55;;;;;;;2.97;2.77;;;19.90;65.40;;;;;;4989485;28;20468;-75
2023/01/02 02:51:27;;;;;;;5.40;3.10;;;19.90;65.30;;;;;;4990071;28;20469;-76
2023/01/02 02:53:56;;;;;;;4.70;3.20;;;19.90;65.30;;;;;;4988614;28;20441;-76
2023/01/02 02:56:24;;;;;;;4.20;3.67;;;19.90;65.30;;;;;;4988726;28;20454;-76
2023/01/02 02:58:52;;;;;;;4.13;3.30;;;19.90;65.50;;;;;;4989221;28;20472;-76
2023/01/02 03:01:21;;;;;;;3.47;3.17;;;19.90;65.30;;;;;;4985766;28;20473;-76
2023/01/02 03:03:56;;;;;;;4.50;3.60;;;19.90;65.30;;;;;;4987447;28;20508;-77
2023/01/02 03:06:38;;;;;;;4.40;3.47;;;19.90;65.40;;;;;;4990205;28;20476;-76
2023/01/02 03:09:11;;;;;;;4.00;3.17;;;19.90;65.40;;;;;;4986900;28;20461;-77
2023/01/02 03:11:44;;;;;;;3.70;3.40;;;19.90;65.50;;;;;;4989554;28;20453;-77
2023/01/02 03:14:17;;;;;;;5.60;3.07;;;19.90;65.50;;;;;;4987732;28;20455;-77
2023/01/02 03:16:46;;;;;;;5.20;3.20;;;19.90;65.50;;;;;;4984545;28;20448;-77
2023/01/02 03:19:17;;;;;;;3.60;3.23;;;19.90;65.50;;;;;;4986560;28;20457;-76
2023/01/02 03:21:47;;;;;;;9.83;3.37;;;19.90;65.70;;;;;;4986945;28;20459;-77
2023/01/02 03:24:18;;;;;;;7.00;3.50;;;19.90;65.50;;;;;;4984303;28;20480;-77
2023/01/02 03:26:47;;;;;;;4.00;3.60;;;19.90;65.60;;;;;;4987970;28;20457;-76
2023/01/02 03:29:17;;;;;;;4.87;3.20;;;19.90;65.50;;;;;;4986254;28;20458;-76
2023/01/02 03:31:48;;;;;;;5.63;3.37;;;19.90;65.60;;;;;;4985800;28;20460;-77
2023/01/02 03:34:17;;;;;;;4.10;3.10;;;19.90;65.50;;;;;;4987993;28;20449;-77
2023/01/02 03:36:46;;;;;;;7.10;3.50;;;19.90;65.60;;;;;;4987283;28;20453;-77
2023/01/02 03:39:16;;;;;;;4.83;3.70;;;19.90;65.60;;;;;;4982241;28;20449;-76
2023/01/02 03:41:45;;;;;;;5.23;3.20;;;19.90;65.60;;;;;;4992129;28;20459;-77
2023/01/02 03:44:14;;;;;;;3.50;2.83;;;19.90;65.50;;;;;;4989725;28;20477;-76
2023/01/02 03:46:43;;;;;;;7.23;3.77;;;19.90;65.50;;;;;;4991918;28;20461;-77
2023/01/02 03:49:16;;;;;;;7.73;3.53;;;19.90;65.70;;;;;;4991592;28;20458;-77
2023/01/02 03:51:44;;;;;;;4.10;3.17;;;19.90;65.70;;;;;;4991070;28;20461;-77
2023/01/02 03:54:12;;;;;;;5.83;3.70;;;19.90;65.70;;;;;;4991601;28;20453;-77
2023/01/02 03:56:43;;;;;;;4.33;3.20;;;19.90;65.70;;;;;;4986322;28;20465;-77
2023/01/02 03:59:15;;;;;;;3.93;3.30;;;19.90;65.70;;;;;;4989555;28;20449;-77
2023/01/02 04:01:46;;;;;;;4.87;3.77;;;20.00;65.80;;;;;;4989079;28;20453;-77
2023/01/02 04:04:18;;;;;;;4.63;3.00;;;20.00;65.70;;;;;;4989036;28;20469;-77
2023/01/02 04:06:48;;;;;;;9.10;4.00;;;19.90;65.70;;;;;;4987513;28;20438;-77
2023/01/02 04:09:18;;;;;;;3.27;2.97;;;20.00;65.80;;;;;;4991955;28;20453;-76
2023/01/02 04:11:49;;;;;;;5.40;3.37;;;20.00;65.80;;;;;;4990437;28;20457;-77
2023/01/02 04:14:18;;;;;;;5.83;3.77;;;20.00;65.80;;;;;;4989082;28;20526;-77
2023/01/02 04:16:46;;;;;;;6.97;3.33;;;20.00;65.60;;;;;;4990206;28;20457;-77
2023/01/02 04:19:17;;;;;;;6.07;3.70;;;20.00;65.80;;;;;;4987959;28;20450;-77
2023/01/02 04:21:45;;;;;;;3.60;3.00;;;19.90;65.50;;;;;;4989401;28;20465;-77
2023/01/02 04:24:14;;;;;;;7.20;3.27;;;19.90;65.70;;;;;;4993966;28;20483;-77
2023/01/02 04:26:44;;;;;;;3.43;3.13;;;19.90;65.90;;;;;;4991543;28;20466;-77
2023/01/02 04:29:12;;;;;;;6.40;3.87;;;20.00;65.90;;;;;;4990855;28;20537;-77
2023/01/02 04:31:43;;;;;;;5.73;3.50;;;19.90;65.90;;;;;;4991764;28;20460;-77
2023/01/02 04:34:12;;;;;;;7.23;3.67;;;19.90;66.00;;;;;;4989258;28;20464;-75
2023/01/02 04:36:42;;;;;;;5.80;3.03;;;19.90;66.00;;;;;;4994362;28;21051;-77
2023/01/02 04:39:10;;;;;;;4.17;3.70;;;19.90;65.90;;;;;;4990984;28;20469;-77
2023/01/02 04:41:38;;;;;;;6.33;4.20;;;19.90;66.00;;;;;;4989028;28;20484;-76
2023/01/02 04:44:06;;;;;;;5.07;3.03;;;19.90;66.00;;;;;;4988134;28;20480;-76
2023/01/02 04:46:34;;;;;;;7.40;3.53;;;19.90;66.00;;;;;;4990044;28;20453;-77
2023/01/02 04:49:02;;;;;;;5.70;3.50;;;19.90;66.10;;;;;;4988625;28;20449;-77
2023/01/02 04:51:30;;;;;;;9.37;4.00;;;19.90;66.10;;;;;;4992850;28;20495;-76
2023/01/02 04:54:00;;;;;;;6.90;4.00;;;19.90;66.20;;;;;;4990847;28;20441;-76
2023/01/02 04:56:28;;;;;;;7.43;3.70;;;19.90;66.20;;;;;;4993205;28;20456;-76
2023/01/02 04:58:56;;;;;;;5.27;3.37;;;19.90;66.20;;;;;;4991088;28;20489;-76
2023/01/02 05:01:24;;;;;;;4.53;2.93;;;19.90;66.40;;;;;;4990598;28;20503;-77
2023/01/02 05:03:52;;;;;;;6.43;3.77;;;19.90;66.30;;;;;;4987770;28;20531;-76
2023/01/02 05:06:20;;;;;;;6.23;3.50;;;19.90;66.90;;;;;;4988041;28;20465;-76
2023/01/02 05:08:48;;;;;;;6.17;3.50;;;19.90;66.30;;;;;;4987582;28;20457;-76
2023/01/02 05:11:18;;;;;;;5.70;3.47;;;19.90;66.40;;;;;;4993481;28;20482;-76
2023/01/02 05:13:47;;;;;;;7.00;3.90;;;19.90;66.30;;;;;;4988174;28;20450;-76
2023/01/02 05:16:15;;;;;;;8.90;3.63;;;19.90;66.30;;;;;;4988548;28;20449;-76
2023/01/02 05:18:43;;;;;;;7.30;3.60;;;19.90;66.50;;;;;;4991997;28;20461;-76
2023/01/02 05:23:47;;;;;;;4.60;3.63;;;19.90;66.50;;;;;;4990088;28;20477;-76
2023/01/02 05:24:00;;;;;;;6.03;3.20;;;19.90;66.50;;;;;;4988812;28;20511;-77
2023/01/02 05:26:31;;;;;;;6.60;3.93;;;19.90;66.60;;;;;;4989828;28;20449;-76
2023/01/02 05:28:59;;;;;;;3.70;3.40;;;19.90;66.60;;;;;;4990629;28;20512;-76
2023/01/02 05:31:27;;;;;;;7.63;4.03;;;19.90;66.60;;;;;;4991682;28;20472;-76
2023/01/02 05:33:56;;;;;;;4.87;3.63;;;19.90;66.80;;;;;;4990671;28;20484;-77
2023/01/02 05:36:26;;;;;;;3.53;3.23;;;19.90;66.80;;;;;;4990745;28;20453;-76
2023/01/02 05:38:54;;;;;;;3.83;3.23;;;19.90;66.90;;;;;;4991001;28;21034;-77
2023/01/02 05:41:23;;;;;;;5.20;3.80;;;19.90;66.90;;;;;;4988757;28;20560;-77
2023/01/02 05:43:54;;;;;;;4.30;3.90;;;19.90;66.80;;;;;;4988221;28;20481;-77
2023/01/02 05:46:22;;;;;;;4.77;3.90;;;19.90;67.00;;;;;;4990944;28;20453;-77
2023/01/02 05:48:50;;;;;;;6.47;3.90;;;19.90;66.90;;;;;;4988654;28;20453;-77
2023/01/02 05:51:19;;;;;;;8.03;3.73;;;19.90;67.00;;;;;;4989952;28;20980;-77
2023/01/02 05:53:47;;;;;;;8.20;3.60;;;19.90;67.00;;;;;;4987138;28;20457;-77
2023/01/02 05:56:16;;;;;;;5.93;3.30;;;19.90;67.10;;;;;;4990430;28;20528;-76
2023/01/02 05:58:46;;;;;;;5.63;3.60;;;19.90;67.00;;;;;;4990481;28;20459;-77
2023/01/02 06:01:16;;;;;;;8.00;3.57;;;19.90;66.80;;;;;;4984608;28;20465;-77
2023/01/02 06:03:44;;;;;;;6.67;3.67;;;20.00;67.00;;;;;;4989345;28;20453;-77
2023/01/02 06:06:13;;;;;;;7.47;3.53;;;19.90;67.20;;;;;;4988386;28;20496;-76
2023/01/02 06:08:41;;;;;;;11.03;3.73;;;19.90;67.10;;;;;;4989236;28;20457;-77
2023/01/02 06:11:09;;;;;;;6.93;3.50;;;19.90;67.00;;;;;;4989733;28;20480;-77
2023/01/02 06:13:38;;;;;;;5.43;3.30;;;19.90;67.00;;;;;;4989797;28;20467;-77
2023/01/02 06:16:06;;;;;;;4.43;3.57;;;19.90;67.10;;;;;;4989101;28;20449;-77
2023/01/02 06:18:37;;;;;;;4.40;3.80;;;19.90;67.30;;;;;;4991347;28;20550;-77
2023/01/02 06:21:06;;;;;;;4.30;3.67;;;19.90;67.20;;;;;;4985907;28;20473;-77
2023/01/02 06:23:34;;;;;;;4.60;3.60;;;19.90;67.10;;;;;;4987694;28;20459;-77
2023/01/02 06:26:03;;;;;;;5.30;3.30;;;19.90;67.30;;;;;;4984979;28;20469;-77
2023/01/02 06:28:31;;;;;;;4.83;3.37;;;19.90;67.30;;;;;;4991348;28;20458;-77
2023/01/02 06:31:00;;;;;;;11.60;3.20;;;19.90;67.30;;;;;;4990573;28;20481;-77
2023/01/02 06:33:28;;;;;;;6.80;3.30;;;19.90;67.40;;;;;;4992207;28;20461;-77
2023/01/02 06:35:59;;;;;;;5.97;3.60;;;19.90;67.40;;;;;;4990300;28;20565;-76
2023/01/02 06:38:27;;;;;;;6.67;3.73;;;19.90;67.50;;;;;;4991087;28;20457;-77
2023/01/02 06:40:56;;;;;;;7.87;3.40;;;19.90;67.50;;;;;;4985615;28;20483;-77
2023/01/02 06:43:24;;;;;;;5.30;3.77;;;19.90;67.50;;;;;;4989407;28;20532;-77
2023/01/02 06:45:52;;;;;;;4.43;3.30;;;19.90;67.60;;;;;;4990519;28;20473;-78
2023/01/02 06:48:20;;;;;;;4.40;3.27;;;19.90;67.60;;;;;;4991996;28;20467;-76
2023/01/02 06:50:48;;;;;;;7.07;3.87;;;19.90;67.80;;;;;;4988503;28;20479;-77
2023/01/02 06:53:17;;;;;;;6.20;3.50;;;19.90;67.60;;;;;;4989338;28;20466;-77
2023/01/02 06:55:51;;;;;;;5.63;3.93;;;19.90;67.60;;;;;;4989268;28;20454;-76
2023/01/02 06:58:19;;;;;;;6.50;4.37;;;19.90;67.80;;;;;;4994546;28;20469;-77
2023/01/02 07:00:47;;;;;;;5.57;3.80;;;19.90;67.80;;;;;;4989496;28;20505;-77
2023/01/02 07:03:15;;;;;;;5.80;3.43;;;20.00;67.90;;;;;;4988301;28;20472;-77
2023/01/02 07:05:43;;;;;;;11.40;3.67;;;19.90;67.90;;;;;;4989316;28;20473;-77
2023/01/02 07:08:11;;;;;;;5.80;3.83;;;19.90;67.90;;;;;;4988556;28;20449;-76
2023/01/02 07:10:40;;;;;;;5.73;3.30;;;19.90;67.80;;;;;;4991842;28;20477;-77
2023/01/02 07:13:11;;;;;;;4.00;3.27;;;20.00;68.00;;;;;;4989921;28;20457;-77
2023/01/02 07:15:39;;;;;;;4.97;3.87;;;19.90;67.80;;;;;;4990963;28;20456;-77
2023/01/02 07:18:07;;;;;;;5.60;3.90;;;20.00;67.90;;;;;;4995980;28;20453;-77
2023/01/02 07:20:35;;;;;;;10.13;3.93;;;19.90;67.90;;;;;;4995152;28;20491;-76
2023/01/02 07:23:03;;;;;;;4.10;3.73;;;19.90;67.90;;;;;;4993452;28;20461;-78
2023/01/02 07:25:31;;;;;;;11.70;4.50;;;19.90;67.90;;;;;;4998190;28;20460;-76
2023/01/02 07:28:00;;;;;;;6.07;3.60;;;19.90;67.80;;;;;;4996375;28;20450;-76
2023/01/02 07:30:28;;;;;;;8.10;3.80;;;20.00;68.00;;;;;;4991387;28;20451;-76
2023/01/02 07:32:56;;;;;;;5.33;3.40;;;19.90;67.90;;;;;;4992465;28;20435;-76
2023/01/02 07:35:24;;;;;;;7.03;3.80;;;19.90;68.10;;;;;;4992230;28;20456;-75
2023/01/02 07:37:52;;;;;;;6.40;3.53;;;19.90;68.00;;;;;;4995517;28;20459;-75
2023/01/02 07:40:20;;;;;;;5.30;3.10;;;20.00;68.20;;;;;;4994522;28;20477;-76
2023/01/02 07:42:54;;;;;;;6.57;3.93;;;19.90;68.10;;;;;;4993706;28;20449;-77
2023/01/02 07:45:23;;;;;;;6.40;3.63;;;19.90;68.10;;;;;;4996192;28;20996;-76
2023/01/02 07:47:51;;;;;;;12.17;3.80;;;19.90;68.20;;;;;;4992370;28;20460;-77
2023/01/02 07:50:18;;;;;;;6.30;3.70;;;19.90;68.10;;;;;;4992479;28;20460;-76
2023/01/02 07:52:46;;;;;;;4.77;3.20;;;19.90;68.30;;;;;;4993130;28;20464;-77
2023/01/02 07:55:15;;;;;;;7.13;3.57;;;20.00;68.20;;;;;;4987218;28;20445;-77
2023/01/02 07:57:43;;;;;;;5.70;3.73;;;19.90;68.20;;;;;;4994091;28;20449;-77
2023/01/02 08:00:13;;;;;;;4.40;3.33;;;19.90;68.30;;;;;;4992346;28;20476;-77
2023/01/02 08:02:42;;;;;;;8.60;3.67;;;19.90;68.20;;;;;;4989227;28;20469;-77
2023/01/02 08:05:10;;;;;;;5.60;3.47;;;19.90;68.30;;;;;;4986486;28;20471;-76
2023/01/02 08:07:38;;;;;;;4.77;3.10;;;20.00;68.40;;;;;;4987297;28;20469;-76
2023/01/02 08:10:11;;;;;;;4.50;3.40;;;19.90;68.20;;;;;;4992265;28;20568;-76
2023/01/02 08:12:40;;;;;;;7.80;4.23;;;19.90;68.30;;;;;;4992515;28;20456;-76
2023/01/02 08:15:09;;;;;;;6.20;4.00;;;20.00;68.50;;;;;;4992185;28;20461;-76
2023/01/02 08:17:37;;;;;;;6.27;3.47;;;20.00;68.60;;;;;;4988139;28;20463;-76
2023/01/02 08:20:09;;;;;;;9.57;2.90;;;20.00;68.50;;;;;;4991174;28;20476;-76
2023/01/02 08:22:37;;;;;;;4.70;3.33;;;20.00;68.50;;;;;;4986333;28;20431;-75
2023/01/02 08:25:06;;;;;;;5.23;3.77;;;19.90;68.40;;;;;;4987625;28;20460;-77
2023/01/02 08:27:34;;;;;;;7.23;3.40;;;20.00;68.40;;;;;;4991337;28;20436;-76
2023/01/02 08:30:02;;;;;;;3.50;3.17;;;20.00;68.60;;;;;;4992355;28;20484;-77
2023/01/02 08:32:30;;;;;;;6.53;3.57;;;20.00;68.50;;;;;;4991315;28;20453;-77
2023/01/02 08:34:58;;;;;;;4.57;3.30;;;20.00;68.60;;;;;;4990146;28;20453;-76
2023/01/02 08:37:28;;;;;;;4.03;3.17;;;20.00;68.60;;;;;;4992854;28;21061;-76
2023/01/02 08:39:56;;;;;;;5.70;3.53;;;20.00;68.60;;;;;;4992803;28;20473;-76
2023/01/02 08:42:24;;;;;;;4.30;3.20;;;20.00;68.50;;;;;;4991506;28;20457;-77
2023/01/02 08:44:52;;;;;;;6.03;3.40;;;20.00;68.50;;;;;;4991640;28;20504;-77
2023/01/02 08:47:20;;;;;;;6.10;3.57;;;20.00;68.60;;;;;;4990183;28;20481;-76
2023/01/02 08:49:48;;;;;;;3.73;2.90;;;20.00;68.70;;;;;;4992536;28;20476;-77
2023/01/02 08:52:16;;;;;;;8.50;3.20;;;20.00;68.60;;;;;;4992442;28;20461;-77
2023/01/02 08:54:45;;;;;;;5.53;3.10;;;20.00;68.50;;;;;;4991538;28;20432;-77
2023/01/02 08:57:13;;;;;;;4.97;2.80;;;20.00;68.60;;;;;;4991870;28;20545;-76
2023/01/02 08:59:41;;;;;;;4.93;3.20;;;20.00;68.90;;;;;;4989611;28;20477;-77
2023/01/02 09:02:12;;;;;;;4.67;3.13;;;20.00;68.60;;;;;;4990429;28;21124;-76
2023/01/02 09:04:40;;;;;;;7.77;3.23;;;20.00;68.60;;;;;;4993158;28;20455;-76
2023/01/02 09:07:09;;;;;;;5.63;3.13;;;20.00;68.70;;;;;;4989706;28;20486;-76
2023/01/02 09:09:37;;;;;;;6.07;3.03;;;20.00;68.90;;;;;;4990982;28;20992;-76
2023/01/02 09:12:07;;;;;;;6.43;3.20;;;20.00;68.80;;;;;;4990201;28;20464;-77
2023/01/02 09:14:34;;;;;;;6.23;3.30;;;20.00;68.70;;;;;;4992259;28;20449;-76
2023/01/02 09:17:03;;;;;;;4.10;3.30;;;20.00;68.90;;;;;;4991517;28;20472;-77
2023/01/02 09:19:31;;;;;;;6.40;2.87;;;20.00;68.80;;;;;;4985410;28;20468;-76
2023/01/02 09:22:00;;;;;;;10.17;3.67;;;20.00;68.80;;;;;;4983992;28;20453;-77
2023/01/02 09:24:28;;;;;;;8.53;3.13;;;20.00;68.80;;;;;;4986123;28;20457;-77
2023/01/02 09:26:56;;;;;;;4.00;3.23;;;20.10;68.70;;;;;;4984926;28;20481;-77
2023/01/02 09:29:25;;;;;;;6.67;3.60;;;20.00;68.60;;;;;;4987094;28;20894;-76
2023/01/02 09:31:54;;;;;;;4.23;2.83;;;20.10;68.60;;;;;;4992042;28;20466;-80
2023/01/02 09:34:22;;;;;;;6.47;3.07;;;20.10;68.70;;;;;;4991920;28;20499;-77
2023/01/02 09:36:50;;;;;;;8.63;3.33;;;20.10;68.60;;;;;;4995135;28;20452;-76
2023/01/02 09:39:18;;;;;;;7.50;2.90;;;20.10;68.60;;;;;;4991492;28;20548;-76
2023/01/02 09:41:47;;;;;;;5.70;3.27;;;20.10;68.70;;;;;;4987974;28;20456;-77
2023/01/02 09:44:17;;;;;;;4.50;2.90;;;20.10;68.50;;;;;;4985538;28;20458;-76
2023/01/02 09:46:49;;;;;;;5.23;3.87;;;20.00;68.50;;;;;;4992753;28;20472;-75
2023/01/02 09:49:19;;;;;;;2.00;1.90;;;19.30;74.40;;;;;;4992223;28;20460;-76
2023/01/02 09:51:47;;;;;;;2.23;2.13;;;18.50;72.10;;;;;;4986351;28;20446;-76
2023/01/02 09:54:20;;;;;;;2.70;1.90;;;17.40;74.40;;;;;;4986037;28;20446;-74
2023/01/02 09:56:49;;;;;;;2.40;2.20;;;16.90;76.10;;;;;;4987467;28;20449;-77
2023/01/02 09:59:21;;;;;;;1.83;1.73;;;17.10;82.40;;;;;;4988044;28;20459;-77
2023/01/02 10:01:55;;;;;;;3.53;1.77;;;17.80;80.10;;;;;;4988408;28;20454;-77
2023/01/02 10:04:33;;;;;;;5.60;1.90;;;18.40;77.40;;;;;;4988723;28;20465;-77
2023/01/02 10:07:05;;;;;;;5.70;1.70;;;18.80;75.30;;;;;;4991430;28;20562;-81
2023/01/02 10:09:38;;;;;;;1.40;1.30;;;19.10;73.70;;;;;;4991527;28;20465;-80
2023/01/02 10:12:11;;;;;;;1.10;1.00;;;19.30;72.70;;;;;;4993471;28;20461;-80
2023/01/02 10:14:41;;;;;;;2.43;1.20;;;19.40;71.80;;;;;;4992300;28;20452;-80
2023/01/02 10:17:14;;;;;;;1.80;1.37;;;19.50;71.20;;;;;;4996230;28;20497;-81
2023/01/02 10:19:44;;;;;;;1.07;1.07;;;19.60;70.60;;;;;;4991130;28;20560;-80
2023/01/02 10:22:15;;;;;;;1.40;1.13;;;19.70;70.40;;;;;;4993858;28;21020;-83
2023/01/02 10:24:45;;;;;;;2.27;1.10;;;19.80;70.10;;;;;;4996146;28;20448;-80
2023/01/02 10:27:15;;;;;;;1.20;1.10;;;19.80;69.70;;;;;;4990848;28;20480;-82
2023/01/02 10:29:44;;;;;;;0.87;0.87;;;19.80;69.50;;;;;;4985491;28;20560;-81
2023/01/02 10:32:15;;;;;;;3.53;0.93;;;19.80;69.50;;;;;;4988844;28;20459;-83
2023/01/02 10:34:45;;;;;;;2.40;1.00;;;19.90;69.40;;;;;;4991640;28;20470;-80
2023/01/02 10:37:13;;;;;;;1.00;1.00;;;19.90;69.10;;;;;;4986443;28;20958;-82
2023/01/02 10:39:41;;;;;;;2.30;1.10;;;19.90;68.90;;;;;;4988013;28;20540;-81
2023/01/02 10:42:10;;;;;;;1.03;0.93;;;19.90;69.00;;;;;;4993044;28;20463;-82
2023/01/02 10:44:38;;;;;;;1.20;1.10;;;19.90;68.90;;;;;;4977880;28;20549;-76
2023/01/02 10:47:12;;;;;;;1.77;1.67;;;19.90;68.70;;;;;;4981467;28;20481;-78
2023/01/02 10:49:41;;;;;;;1.60;1.50;;;19.90;68.70;;;;;;4990710;28;20483;-79
2023/01/02 10:52:13;;;;;;;1.73;1.63;;;19.90;68.80;;;;;;4997822;28;20468;-79
2023/01/02 10:54:49;;;;;;;2.00;1.90;;;20.00;68.90;;;;;;4992204;28;20480;-80
2023/01/02 10:57:38;;;;;;;1.97;1.60;;;20.00;68.60;;;;;;4995144;28;20477;-81
2023/01/02 11:00:08;;;;;;;2.40;1.90;;;20.10;68.80;;;;;;4994894;28;20485;-79
2023/01/02 11:02:37;;;;;;;4.17;2.03;;;20.00;68.50;;;;;;4983991;28;20464;-79
2023/01/02 11:05:08;;;;;;;2.83;2.10;;;20.00;68.40;;;;;;4994424;28;20460;-79
2023/01/02 11:07:38;;;;;;;5.83;3.00;;;20.00;68.50;;;;;;4994790;28;20480;-78
2023/01/02 11:10:21;;;;;;;3.87;2.40;;;20.00;68.40;;;;;;4994386;28;20484;-78
2023/01/02 11:12:49;;;;;;;2.70;2.40;;;20.00;68.60;;;;;;4990013;28;20458;-78
2023/01/02 11:15:23;;;;;;;3.00;2.70;;;20.00;68.50;;;;;;4994092;28;20503;-78
2023/01/02 11:17:52;;;;;;;3.53;2.80;;;19.90;68.30;;;;;;4995189;28;20453;-77
2023/01/02 11:20:26;;;;;;;4.43;3.00;;;19.90;68.50;;;;;;4993855;28;20488;-78
2023/01/02 11:22:55;;;;;;;3.43;2.77;;;19.90;68.40;;;;;;4990065;28;20467;-77
2023/01/02 11:25:24;;;;;;;4.97;2.83;;;19.90;68.70;;;;;;4995934;28;20469;-78
2023/01/02 11:27:52;;;;;;;3.10;2.90;;;20.00;68.70;;;;;;4993519;28;20481;-77
2023/01/02 11:30:32;;;;;;;2.90;2.70;;;20.00;68.60;;;;;;4996833;28;20477;-78
2023/01/02 11:33:02;;;;;;;3.13;2.90;;;20.00;68.50;;;;;;4992084;28;20483;-78
2023/01/02 11:35:37;;;;;;;3.60;3.17;;;20.00;68.30;;;;;;4990356;28;20544;-76
2023/01/02 11:38:12;;;;;;;6.50;3.00;;;20.00;68.40;;;;;;4991040;28;20484;-78
2023/01/02 11:40:39;;;;;;;4.90;3.07;;;20.00;68.30;;;;;;4994578;28;20483;-76
2023/01/02 11:45:55;;;;;;;3.50;3.07;;;20.00;68.20;;;;;;4991155;28;20456;-76
2023/01/02 11:48:23;;;;;;;4.50;3.10;;;20.00;68.30;;;;;;4990606;28;20483;-77
2023/01/02 11:50:53;;;;;;;3.80;3.33;;;20.00;68.30;;;;;;4993513;28;20563;-78
2023/01/02 11:53:22;;;;;;;3.67;3.37;;;20.00;68.30;;;;;;4996086;28;20423;-77
2023/01/02 11:55:53;;;;;;;3.80;2.97;;;20.00;68.30;;;;;;4994673;28;21050;-79
2023/01/02 11:58:24;;;;;;;4.07;3.67;;;20.00;68.20;;;;;;4992361;28;20442;-78
2023/01/02 12:00:55;;;;;;;3.67;3.27;;;20.20;66.80;;;;;;4997407;28;20227;-76
2023/01/02 12:03:24;;;;;;;4.50;3.43;;;20.00;68.00;;;;;;4998004;28;20453;-76
2023/01/02 12:06:03;;;;;;;3.50;3.10;;;19.90;68.60;;;;;;4993769;28;20457;-77
2023/01/02 12:08:35;;;;;;;3.57;3.10;;;19.90;68.50;;;;;;4996397;28;20476;-76
2023/01/02 12:11:17;;;;;;;3.57;3.27;;;19.90;68.50;;;;;;4991109;28;20480;-77
2023/01/02 12:13:55;;;;;;;3.80;3.33;;;20.00;68.50;;;;;;4989708;28;20465;-77
2023/01/02 12:16:36;;;;;;;3.60;3.10;;;20.00;68.30;;;;;;4994209;28;20460;-77
2023/01/02 12:19:15;;;;;;;4.10;3.17;;;20.00;68.20;;;;;;5000437;28;20488;-76
2023/01/02 12:21:48;;;;;;;4.53;3.33;;;20.00;68.20;;;;;;4994612;28;20448;-76
2023/01/02 12:24:38;;;;;;;3.77;3.37;;;19.90;68.10;;;;;;4999557;28;20553;-77
2023/01/02 12:27:08;;;;;;;2.87;2.67;;;20.00;68.10;;;;;;4994469;28;20525;-78
2023/01/02 12:29:42;;;;;;;3.80;2.83;;;20.00;68.50;;;;;;4996625;28;20493;-76
2023/01/02 12:32:40;;;;;;;3.10;2.90;;;19.90;68.10;;;;;;4996557;28;20457;-77
2023/01/02 12:35:16;;;;;;;3.83;3.50;;;19.90;68.00;;;;;;4992237;28;20446;-76
2023/01/02 12:37:47;;;;;;;3.00;2.70;;;19.90;68.00;;;;;;4998654;28;20459;-76
2023/01/02 12:40:44;;;;;;;2.80;2.60;;;19.80;67.90;;;;;;4995027;28;21018;-76
2023/01/02 12:43:24;;;;;;;4.20;2.70;;;19.80;67.60;;;;;;4997705;28;20461;-76
2023/01/02 12:45:54;;;;;;;3.00;2.67;;;19.80;67.80;;;;;;4997859;28;20464;-77
2023/01/02 12:48:35;;;;;;;2.80;2.63;;;19.80;67.80;;;;;;4991798;28;20466;-78
2023/01/02 12:51:08;;;;;;;2.80;2.60;;;19.80;67.80;;;;;;4995702;28;20480;-76
2023/01/02 12:53:49;;;;;;;2.70;2.50;;;19.80;67.70;;;;;;4995985;28;20464;-76
2023/01/02 12:56:40;;;;;;;2.47;2.00;;;19.80;67.60;;;;;;4995566;28;20484;-78
2023/01/02 12:59:20;;;;;;;3.00;2.30;;;19.80;67.70;;;;;;4994258;28;20449;-76
2023/01/02 13:01:51;;;;;;;2.10;2.00;;;19.80;67.50;;;;;;4990887;28;20456;-75
2023/01/02 13:04:20;;;;;;;2.47;2.20;;;19.80;67.40;;;;;;4991267;28;20459;-76